createdAt,value
2018-11-03T00:00:11.612Z,8.8
2018-11-03T00:01:02.034Z,8.8
2018-11-03T00:01:51.795Z,8.8
2018-11-03T00:02:42.149Z,8.7
2018-11-03T00:03:31.884Z,8.7
2018-11-03T00:04:21.991Z,8.7
2018-11-03T00:05:12.441Z,8.7
2018-11-03T00:06:02.631Z,8.7
2018-11-03T00:06:51.455Z,8.6
2018-11-03T00:25:01.445Z,8.7
2018-11-03T00:25:49.772Z,8.7
2018-11-03T00:26:40.427Z,8.6
2018-11-03T00:27:30.080Z,8.6
2018-11-03T00:28:22.194Z,8.7
2018-11-03T00:29:10.870Z,8.8
2018-11-03T00:30:00.356Z,8.8
2018-11-03T00:30:50.705Z,8.8
2018-11-03T00:31:41.747Z,8.7
2018-11-03T00:32:30.733Z,8.8
2018-11-03T00:33:21.464Z,8.8
2018-11-03T00:34:11.216Z,8.8
2018-11-03T00:35:01.930Z,8.8
2018-11-03T00:35:51.422Z,8.8
2018-11-03T00:36:40.574Z,9
2018-11-03T00:37:31.485Z,9
2018-11-03T00:38:21.590Z,9
2018-11-03T00:39:11.042Z,9.3
2018-11-03T00:40:01.414Z,9.3
2018-11-03T00:40:51.944Z,9.2
2018-11-03T00:41:42.506Z,9.4
2018-11-03T00:42:31.440Z,9.6
2018-11-03T00:43:21.625Z,9.7
2018-11-03T00:44:11.197Z,9.7
2018-11-03T00:45:02.461Z,9.7
2018-11-03T00:45:51.901Z,9.8
2018-11-03T00:46:42.161Z,9.9
2018-11-03T00:47:32.206Z,9.9
2018-11-03T00:48:23.524Z,9.7
2018-11-03T00:49:12.134Z,9.4
2018-11-03T00:50:01.907Z,9.3
2018-11-03T00:50:52.194Z,9.1
2018-11-03T00:51:43.360Z,9.3
2018-11-03T00:52:32.881Z,9.3
2018-11-03T00:53:22.995Z,9.4
2018-11-03T00:54:12.731Z,9.5
2018-11-03T00:55:02.832Z,9.6
2018-11-03T00:55:53.083Z,9.8
2018-11-03T00:56:42.586Z,9.5
2018-11-03T00:57:33.057Z,9.7
2018-11-03T00:58:22.985Z,9.6
2018-11-03T00:59:12.508Z,9.6
2018-11-03T01:00:02.265Z,9.7
2018-11-03T01:00:53.498Z,9.7
2018-11-03T01:01:43.813Z,9.8
2018-11-03T01:02:33.618Z,9.7
2018-11-03T01:03:23.107Z,9.8
2018-11-03T01:04:12.871Z,9.8
2018-11-03T01:05:04.021Z,9.7
2018-11-03T01:05:52.683Z,9.8
2018-11-03T01:06:44.170Z,9.6
2018-11-03T01:07:33.203Z,9.4
2018-11-03T01:08:24.083Z,9.4
2018-11-03T01:09:13.810Z,9.3
2018-11-03T01:10:03.873Z,9.3
2018-11-03T01:10:53.947Z,9.3
2018-11-03T01:11:44.015Z,9.4
2018-11-03T01:12:33.732Z,9.3
2018-11-03T01:13:23.444Z,9.3
2018-11-03T01:14:13.643Z,9.2
2018-11-03T01:15:04.542Z,9.1
2018-11-03T01:15:53.737Z,8.9
2018-11-03T01:16:44.094Z,9
2018-11-03T01:17:34.709Z,9.1
2018-11-03T01:18:25.107Z,9
2018-11-03T01:19:14.540Z,9
2018-11-03T01:20:04.332Z,8.9
2018-11-03T01:20:54.686Z,8.7
2018-11-03T01:21:43.999Z,8.6
2018-11-03T01:22:34.871Z,8.4
2018-11-03T01:23:25.301Z,8.4
2018-11-03T01:24:14.337Z,8.4
2018-11-03T01:25:04.602Z,8.4
2018-11-03T01:25:55.332Z,8.4
2018-11-03T01:26:45.394Z,8.3
2018-11-03T01:27:34.673Z,8.3
2018-11-03T01:28:25.819Z,8.4
2018-11-03T01:29:15.281Z,8.4
2018-11-03T01:30:05.161Z,8.3
2018-11-03T01:30:54.859Z,8.3
2018-11-03T01:31:45.686Z,8.3
2018-11-03T01:32:35.429Z,8.3
2018-11-03T01:33:26.090Z,8.3
2018-11-03T01:34:15.669Z,8.1
2018-11-03T01:35:05.396Z,8
2018-11-03T01:35:55.486Z,7.9
2018-11-03T01:36:45.548Z,7.8
2018-11-03T01:37:36.203Z,7.8
2018-11-03T01:38:25.999Z,7.7
2018-11-03T01:39:16.043Z,7.6
2018-11-03T01:40:06.373Z,7.6
2018-11-03T01:40:55.845Z,7.6
2018-11-03T01:41:45.933Z,7.6
2018-11-03T01:42:36.263Z,7.6
2018-11-03T01:43:26.030Z,7.6
2018-11-03T01:44:15.613Z,7.6
2018-11-03T01:45:05.460Z,7.6
2018-11-03T01:45:56.015Z,7.6
2018-11-03T01:46:45.989Z,7.6
2018-11-03T01:47:36.352Z,7.8
2018-11-03T01:48:26.410Z,7.8
2018-11-03T01:49:16.223Z,7.8
2018-11-03T01:50:06.557Z,7.9
2018-11-03T01:50:56.695Z,7.9
2018-11-03T01:51:46.379Z,7.9
2018-11-03T01:52:37.283Z,7.9
2018-11-03T01:53:26.485Z,7.9
2018-11-03T01:54:16.840Z,7.9
2018-11-03T01:55:07.461Z,7.9
2018-11-03T01:55:56.903Z,7.9
2018-11-03T01:56:47.029Z,7.9
2018-11-03T01:57:37.375Z,7.9
2018-11-03T01:58:27.442Z,7.8
2018-11-03T01:59:17.560Z,7.9
2018-11-03T02:00:06.967Z,7.9
2018-11-03T02:00:57.613Z,7.9
2018-11-03T02:01:47.088Z,7.9
2018-11-03T02:02:37.750Z,7.9
2018-11-03T02:03:27.228Z,7.9
2018-11-03T02:04:17.287Z,7.9
2018-11-03T02:05:06.844Z,7.9
2018-11-03T02:05:57.687Z,7.9
2018-11-03T02:06:47.772Z,7.9
2018-11-03T02:07:37.856Z,7.9
2018-11-03T02:08:28.464Z,7.9
2018-11-03T02:09:18.030Z,7.9
2018-11-03T02:10:07.882Z,7.9
2018-11-03T02:10:58.656Z,7.9
2018-11-03T02:11:48.137Z,7.9
2018-11-03T02:12:38.709Z,7.9
2018-11-03T02:13:28.837Z,7.9
2018-11-03T02:14:18.894Z,7.9
2018-11-03T02:15:08.667Z,7.9
2018-11-03T02:15:59.046Z,7.9
2018-11-03T02:16:49.061Z,7.9
2018-11-03T02:17:38.836Z,7.9
2018-11-03T02:18:28.899Z,7.9
2018-11-03T02:19:18.964Z,7.9
2018-11-03T02:20:08.767Z,7.9
2018-11-03T02:20:58.916Z,7.8
2018-11-03T02:21:49.444Z,7.8
2018-11-03T02:22:38.342Z,7.8
2018-11-03T02:23:29.542Z,7.8
2018-11-03T02:24:19.049Z,7.8
2018-11-03T02:25:09.353Z,7.8
2018-11-03T02:25:58.661Z,7.8
2018-11-03T02:26:49.785Z,7.8
2018-11-03T02:27:39.585Z,7.9
2018-11-03T02:28:28.996Z,7.9
2018-11-03T02:29:19.561Z,7.9
2018-11-03T02:30:09.793Z,7.8
2018-11-03T02:30:59.852Z,7.8
2018-11-03T02:31:49.726Z,7.7
2018-11-03T02:32:40.023Z,7.8
2018-11-03T02:33:30.033Z,7.8
2018-11-03T02:34:20.317Z,7.8
2018-11-03T02:35:10.126Z,7.8
2018-11-03T02:36:00.728Z,7.7
2018-11-03T02:36:49.955Z,7.6
2018-11-03T02:37:40.101Z,7.6
2018-11-03T02:38:30.153Z,7.6
2018-11-03T02:39:20.532Z,7.7
2018-11-03T02:40:10.200Z,7.7
2018-11-03T02:41:00.553Z,7.6
2018-11-03T02:41:50.515Z,7.7
2018-11-03T02:42:41.315Z,7.7
2018-11-03T02:43:30.772Z,7.7
2018-11-03T02:44:21.080Z,7.7
2018-11-03T02:45:10.915Z,7.6
2018-11-03T02:46:01.199Z,7.6
2018-11-03T02:46:50.989Z,7.6
2018-11-03T02:47:41.063Z,7.6
2018-11-03T02:48:31.409Z,7.6
2018-11-03T02:49:21.731Z,7.6
2018-11-03T02:50:10.942Z,7.6
2018-11-03T02:51:01.013Z,7.7
2018-11-03T02:51:51.371Z,7.8
2018-11-03T02:52:42.081Z,7.9
2018-11-03T02:53:30.900Z,7.9
2018-11-03T02:54:21.566Z,7.9
2018-11-03T02:55:11.317Z,7.9
2018-11-03T02:56:02.016Z,7.9
2018-11-03T02:56:51.319Z,8
2018-11-03T02:57:41.242Z,7.9
2018-11-03T02:58:32.376Z,7.9
2018-11-03T02:59:22.076Z,7.9
2018-11-03T03:00:11.676Z,8
2018-11-03T03:01:01.743Z,8
2018-11-03T03:01:52.094Z,8
2018-11-03T03:02:42.856Z,8
2018-11-03T03:03:31.822Z,7.9
2018-11-03T03:04:22.093Z,7.9
2018-11-03T03:05:12.341Z,7.9
2018-11-03T03:06:02.641Z,8
2018-11-03T03:06:52.748Z,7.9
2018-11-03T03:07:41.628Z,7.8
2018-11-03T03:08:32.591Z,7.8
2018-11-03T03:09:23.019Z,7.6
2018-11-03T03:10:12.738Z,7.6
2018-11-03T03:11:02.560Z,7.5
2018-11-03T03:11:52.623Z,7.5
2018-11-03T03:12:43.792Z,7.4
2018-11-03T03:13:32.445Z,7.3
2018-11-03T03:14:23.012Z,7.3
2018-11-03T03:15:13.418Z,7.3
2018-11-03T03:16:04.140Z,7.3
2018-11-03T03:16:52.988Z,7.3
2018-11-03T03:17:42.714Z,7.3
2018-11-03T03:18:32.736Z,7.4
2018-11-03T03:19:22.996Z,7.5
2018-11-03T03:20:13.187Z,7.4
2018-11-03T03:21:03.262Z,7.5
2018-11-03T03:21:53.048Z,7.5
2018-11-03T03:22:43.684Z,7.5
2018-11-03T03:23:33.398Z,7.5
2018-11-03T03:24:23.993Z,7.5
2018-11-03T03:25:14.122Z,7.5
2018-11-03T03:26:04.217Z,7.6
2018-11-03T03:26:54.327Z,7.6
2018-11-03T03:27:43.409Z,7.6
2018-11-03T03:28:34.051Z,7.6
2018-11-03T03:29:24.197Z,7.6
2018-11-03T03:30:14.457Z,7.5
2018-11-03T03:31:04.394Z,7.4
2018-11-03T03:31:53.753Z,7.3
2018-11-03T03:32:45.087Z,7.3
2018-11-03T03:33:34.415Z,7.3
2018-11-03T03:34:25.009Z,7.3
2018-11-03T03:35:15.369Z,7.4
2018-11-03T03:36:04.386Z,7.4
2018-11-03T03:36:54.359Z,7.4
2018-11-03T03:37:45.064Z,7.5
2018-11-03T03:38:34.816Z,7.6
2018-11-03T03:39:24.957Z,7.6
2018-11-03T03:40:14.966Z,7.6
2018-11-03T03:41:04.485Z,7.6
2018-11-03T03:41:55.321Z,7.6
2018-11-03T03:42:44.874Z,7.6
2018-11-03T03:43:34.661Z,7.6
2018-11-03T03:44:25.178Z,7.6
2018-11-03T03:45:15.275Z,7.5
2018-11-03T03:46:05.344Z,7.4
2018-11-03T03:46:55.101Z,7.3
2018-11-03T03:47:44.969Z,7.3
2018-11-03T03:48:35.223Z,7.3
2018-11-03T03:49:25.420Z,7.3
2018-11-03T03:50:15.428Z,7.5
2018-11-03T03:51:05.705Z,7.6
2018-11-03T03:51:55.475Z,7.6
2018-11-03T03:52:45.323Z,7.6
2018-11-03T03:53:35.589Z,7.6
2018-11-03T03:54:26.220Z,7.6
2018-11-03T03:55:16.243Z,7.5
2018-11-03T03:56:06.084Z,7.6
2018-11-03T03:56:55.923Z,7.6
2018-11-03T03:57:46.193Z,7.6
2018-11-03T03:58:35.553Z,7.7
2018-11-03T03:59:26.673Z,7.6
2018-11-03T04:00:15.496Z,7.6
2018-11-03T04:01:06.430Z,7.6
2018-11-03T04:01:56.503Z,7.6
2018-11-03T04:02:46.918Z,7.6
2018-11-03T04:03:36.576Z,7.6
2018-11-03T04:04:26.525Z,7.6
2018-11-03T04:05:16.689Z,7.6
2018-11-03T04:06:06.821Z,7.5
2018-11-03T04:06:57.188Z,7.5
2018-11-03T04:07:47.216Z,7.5
2018-11-03T04:08:37.002Z,7.5
2018-11-03T04:09:27.073Z,7.5
2018-11-03T04:10:17.362Z,7.5
2018-11-03T04:11:07.170Z,7.4
2018-11-03T04:11:56.444Z,7.6
2018-11-03T04:12:47.694Z,7.6
2018-11-03T04:13:37.053Z,7.6
2018-11-03T04:14:26.533Z,7.5
2018-11-03T04:15:17.494Z,7.4
2018-11-03T04:16:08.190Z,7.5
2018-11-03T04:16:57.607Z,7.6
2018-11-03T04:17:47.707Z,7.6
2018-11-03T04:18:36.919Z,7.6
2018-11-03T04:19:28.737Z,7.6
2018-11-03T04:20:17.843Z,7.6
2018-11-03T04:21:07.319Z,7.6
2018-11-03T04:21:57.960Z,7.6
2018-11-03T04:22:47.880Z,7.6
2018-11-03T04:23:37.796Z,7.5
2018-11-03T04:24:27.859Z,7.5
2018-11-03T04:25:33.196Z,7.5
2018-11-03T04:26:08.647Z,7.5
2018-11-03T04:26:58.227Z,7.4
2018-11-03T04:27:48.177Z,7.4
2018-11-03T04:28:38.433Z,7.4
2018-11-03T04:29:29.075Z,7.5
2018-11-03T04:30:17.889Z,7.5
2018-11-03T04:31:08.904Z,7.5
2018-11-03T04:31:58.989Z,7.4
2018-11-03T04:32:49.686Z,7.4
2018-11-03T04:33:38.511Z,7.4
2018-11-03T04:34:28.376Z,7.3
2018-11-03T04:35:18.494Z,7.3
2018-11-03T04:36:10.390Z,7.3
2018-11-03T04:54:09.690Z,7.3
2018-11-03T04:55:00.712Z,7.3
2018-11-03T04:55:49.640Z,7.3
2018-11-03T04:56:39.504Z,7.2
2018-11-03T04:57:29.727Z,7.3
2018-11-03T04:58:19.802Z,7.3
2018-11-03T04:59:10.402Z,7.3
2018-11-03T05:00:00.455Z,7.4
2018-11-03T05:00:49.975Z,7.4
2018-11-03T05:01:40.047Z,7.4
2018-11-03T05:02:30.391Z,7.4
2018-11-03T05:03:20.740Z,7.4
2018-11-03T05:04:09.930Z,7.5
2018-11-03T05:05:00.282Z,7.5
2018-11-03T05:05:50.341Z,7.6
2018-11-03T05:06:40.105Z,7.6
2018-11-03T05:07:31.303Z,7.6
2018-11-03T05:08:20.521Z,7.7
2018-11-03T05:09:10.346Z,7.6
2018-11-03T05:10:00.835Z,7.7
2018-11-03T05:10:50.222Z,7.7
2018-11-03T05:11:41.786Z,7.8
2018-11-03T05:12:31.407Z,7.7
2018-11-03T05:13:20.897Z,7.7
2018-11-03T05:14:11.254Z,7.6
2018-11-03T05:15:02.535Z,7.6
2018-11-03T05:15:51.651Z,7.6
2018-11-03T05:16:41.133Z,7.6
2018-11-03T05:17:31.199Z,7.6
2018-11-03T05:18:23.157Z,7.6
2018-11-03T05:19:11.114Z,7.6
2018-11-03T05:20:01.978Z,7.6
2018-11-03T05:20:51.758Z,7.6
2018-11-03T05:21:43.066Z,7.7
2018-11-03T05:22:31.556Z,7.7
2018-11-03T05:23:21.330Z,7.7
2018-11-03T05:24:11.980Z,7.8
2018-11-03T05:25:02.790Z,7.8
2018-11-03T05:25:51.822Z,7.8
2018-11-03T05:26:41.601Z,7.7
2018-11-03T05:27:32.220Z,7.8
2018-11-03T05:28:22.427Z,7.7
2018-11-03T05:29:11.778Z,7.7
2018-11-03T05:30:01.843Z,7.7
2018-11-03T05:30:52.443Z,7.8
2018-11-03T05:31:43.060Z,7.8
2018-11-03T05:32:32.906Z,7.8
2018-11-03T05:33:22.385Z,7.8
2018-11-03T05:34:13.051Z,7.9
2018-11-03T05:35:03.419Z,7.9
2018-11-03T05:35:52.805Z,7.9
2018-11-03T05:36:42.891Z,7.9
2018-11-03T05:37:32.088Z,7.9
2018-11-03T05:38:23.753Z,8
2018-11-03T05:39:12.797Z,8
2018-11-03T05:40:02.914Z,8
2018-11-03T05:40:52.947Z,8
2018-11-03T05:41:43.769Z,8.1
2018-11-03T05:42:33.065Z,8.1
2018-11-03T05:43:23.176Z,8.1
2018-11-03T05:44:13.175Z,8.1
2018-11-03T05:45:03.147Z,8.1
2018-11-03T05:45:54.062Z,8.2
2018-11-03T05:46:44.851Z,8.1
2018-11-03T05:47:33.510Z,8.2
2018-11-03T05:48:23.282Z,8.1
2018-11-03T05:49:13.277Z,8.1
2018-11-03T05:50:03.304Z,8.2
2018-11-03T05:50:53.667Z,8.3
2018-11-03T05:51:44.309Z,8.3
2018-11-03T05:52:33.909Z,8.4
2018-11-03T05:53:23.863Z,8.4
2018-11-03T05:54:13.722Z,8.5
2018-11-03T05:55:03.776Z,8.6
2018-11-03T05:55:54.148Z,8.6
2018-11-03T05:56:44.208Z,8.6
2018-11-03T05:57:34.434Z,8.6
2018-11-03T05:58:24.294Z,8.6
2018-11-03T05:59:14.511Z,8.6
2018-11-03T06:00:04.146Z,8.7
2018-11-03T06:00:54.687Z,8.8
2018-11-03T06:01:44.546Z,8.8
2018-11-03T06:02:34.555Z,8.9
2018-11-03T06:03:24.909Z,8.9
2018-11-03T06:04:14.936Z,8.9
2018-11-03T06:05:05.321Z,9
2018-11-03T06:05:55.087Z,9
2018-11-03T06:06:44.832Z,9.1
2018-11-03T06:07:35.490Z,9.1
2018-11-03T06:08:24.963Z,9.1
2018-11-03T06:09:15.021Z,9.1
2018-11-03T06:10:05.088Z,9.2
2018-11-03T06:10:55.218Z,9.2
2018-11-03T06:11:45.728Z,9.2
2018-11-03T06:12:34.965Z,9.2
2018-11-03T06:13:25.606Z,9.3
2018-11-03T06:14:15.086Z,9.3
2018-11-03T06:15:05.753Z,9.4
2018-11-03T06:15:55.786Z,9.4
2018-11-03T06:16:45.540Z,9.4
2018-11-03T06:17:35.610Z,9.5
2018-11-03T06:18:25.681Z,9.6
2018-11-03T06:19:16.010Z,9.6
2018-11-03T06:20:05.325Z,9.6
2018-11-03T06:20:56.430Z,9.6
2018-11-03T06:21:46.200Z,9.7
2018-11-03T06:22:36.996Z,9.7
2018-11-03T06:23:26.686Z,9.7
2018-11-03T06:24:16.101Z,9.7
2018-11-03T06:25:05.631Z,9.8
2018-11-03T06:25:56.225Z,9.7
2018-11-03T06:26:47.128Z,9.8
2018-11-03T06:27:36.141Z,9.8
2018-11-03T06:28:26.721Z,9.9
2018-11-03T06:29:16.492Z,9.9
2018-11-03T06:30:06.812Z,9.9
2018-11-03T06:30:56.887Z,10
2018-11-03T06:31:46.679Z,10
2018-11-03T06:32:36.794Z,10.1
2018-11-03T06:33:26.780Z,10.1
2018-11-03T06:34:16.932Z,10.1
2018-11-03T06:35:07.840Z,10.1
2018-11-03T06:35:56.954Z,10.1
2018-11-03T06:36:46.237Z,10.1
2018-11-03T06:37:37.329Z,10.1
2018-11-03T06:38:27.459Z,10.1
2018-11-03T06:39:16.929Z,10.2
2018-11-03T06:40:07.374Z,10.3
2018-11-03T06:40:57.332Z,10.3
2018-11-03T06:41:47.694Z,10.2
2018-11-03T06:42:37.780Z,10.2
2018-11-03T06:43:26.642Z,10.3
2018-11-03T06:44:17.185Z,10.3
2018-11-03T06:45:07.646Z,10.4
2018-11-03T06:45:57.715Z,10.3
2018-11-03T06:46:48.040Z,10.4
2018-11-03T06:47:39.450Z,10.4
2018-11-03T06:48:27.286Z,10.6
2018-11-03T06:49:17.944Z,10.6
2018-11-03T06:50:08.009Z,10.7
2018-11-03T06:50:58.081Z,10.8
2018-11-03T06:51:48.080Z,10.9
2018-11-03T06:52:38.223Z,11.1
2018-11-03T06:53:28.575Z,11.1
2018-11-03T06:54:18.103Z,11.1
2018-11-03T06:55:08.443Z,11.2
2018-11-03T06:55:58.745Z,11.3
2018-11-03T06:56:49.075Z,11.5
2018-11-03T06:57:38.933Z,11.8
2018-11-03T06:58:28.908Z,11.8
2018-11-03T06:59:19.043Z,11.8
2018-11-03T07:00:08.750Z,11.7
2018-11-03T07:00:58.823Z,11.7
2018-11-03T07:01:48.779Z,11.7
2018-11-03T07:02:39.225Z,11.8
2018-11-03T07:03:29.247Z,11.8
2018-11-03T07:04:19.040Z,11.8
2018-11-03T07:05:09.582Z,11.9
2018-11-03T07:05:59.597Z,11.9
2018-11-03T07:06:49.296Z,12
2018-11-03T07:07:39.464Z,12.2
2018-11-03T07:08:29.331Z,12.4
2018-11-03T07:09:20.340Z,12.4
2018-11-03T07:10:10.088Z,12.5
2018-11-03T07:10:59.825Z,12.8
2018-11-03T07:11:50.478Z,12.9
2018-11-03T07:12:41.054Z,12.8
2018-11-03T07:13:30.343Z,12.9
2018-11-03T07:14:20.051Z,13
2018-11-03T07:15:10.111Z,12.9
2018-11-03T07:16:01.468Z,12.9
2018-11-03T07:16:50.262Z,12.9
2018-11-03T07:17:40.330Z,12.9
2018-11-03T07:18:30.075Z,13.1
2018-11-03T07:19:20.283Z,13.1
2018-11-03T07:20:09.723Z,13.1
2018-11-03T07:21:00.888Z,12.9
2018-11-03T07:21:50.536Z,12.7
2018-11-03T07:22:40.358Z,12.7
2018-11-03T07:23:30.493Z,12.9
2018-11-03T07:24:20.828Z,13.1
2018-11-03T07:25:09.872Z,13.3
2018-11-03T07:26:01.188Z,13.2
2018-11-03T07:26:51.249Z,13.3
2018-11-03T07:27:40.757Z,13.3
2018-11-03T07:28:31.085Z,13.3
2018-11-03T07:29:20.943Z,13.3
2018-11-03T07:30:10.646Z,13.4
2018-11-03T07:31:01.001Z,13.3
2018-11-03T07:31:51.070Z,13.3
2018-11-03T07:32:40.824Z,13.3
2018-11-03T07:33:31.194Z,13.1
2018-11-03T07:34:21.032Z,12.9
2018-11-03T07:35:11.858Z,13.1
2018-11-03T07:36:01.663Z,13.4
2018-11-03T07:36:52.023Z,13.6
2018-11-03T07:37:41.764Z,13.7
2018-11-03T07:38:32.117Z,13.8
2018-11-03T07:39:21.910Z,13.8
2018-11-03T07:40:12.192Z,13.8
2018-11-03T07:41:02.027Z,13.4
2018-11-03T07:41:52.091Z,13.6
2018-11-03T07:42:42.607Z,13.7
2018-11-03T07:43:32.306Z,13.6
2018-11-03T07:44:21.881Z,13.6
2018-11-03T07:45:12.326Z,13.7
2018-11-03T07:46:01.689Z,13.7
2018-11-03T07:46:51.886Z,13.9
2018-11-03T07:47:42.230Z,14
2018-11-03T07:48:33.220Z,13.9
2018-11-03T07:49:23.144Z,13.9
2018-11-03T07:50:12.686Z,14
2018-11-03T07:51:02.433Z,14.2
2018-11-03T07:51:52.318Z,14.3
2018-11-03T07:52:42.261Z,14.6
2018-11-03T07:53:32.923Z,14.7
2018-11-03T07:54:22.620Z,14.9
2018-11-03T07:55:12.471Z,14.9
2018-11-03T07:56:02.856Z,15
2018-11-03T07:56:53.793Z,15.1
2018-11-03T07:57:43.253Z,14.9
2018-11-03T07:58:33.148Z,14.9
2018-11-03T07:59:22.808Z,14.9
2018-11-03T08:00:12.705Z,15
2018-11-03T08:01:02.895Z,15.1
2018-11-03T08:01:53.207Z,15.1
2018-11-03T08:02:43.667Z,15.3
2018-11-03T08:03:33.195Z,15.3
2018-11-03T08:04:23.153Z,15.2
2018-11-03T08:05:13.795Z,14.9
2018-11-03T08:06:02.977Z,15.1
2018-11-03T08:06:53.611Z,15.1
2018-11-03T08:07:43.959Z,14.9
2018-11-03T08:08:34.795Z,14.6
2018-11-03T08:09:24.113Z,14.5
2018-11-03T08:10:14.081Z,14.7
2018-11-03T08:11:04.202Z,14.8
2018-11-03T08:11:54.667Z,14.9
2018-11-03T08:12:44.316Z,15
2018-11-03T08:13:34.897Z,15
2018-11-03T08:14:23.881Z,15.1
2018-11-03T08:15:13.652Z,14.9
2018-11-03T08:16:03.903Z,14.7
2018-11-03T08:16:54.304Z,14.8
2018-11-03T08:17:44.396Z,14.8
2018-11-03T08:18:33.952Z,14.9
2018-11-03T08:19:25.140Z,15.1
2018-11-03T08:20:14.295Z,15.1
2018-11-03T08:21:05.238Z,15.1
2018-11-03T08:21:55.279Z,15.1
2018-11-03T08:22:45.152Z,15.3
2018-11-03T08:23:34.730Z,15.4
2018-11-03T08:24:25.204Z,15.6
2018-11-03T08:25:15.503Z,15.7
2018-11-03T08:26:04.852Z,15.7
2018-11-03T08:26:55.411Z,15.7
2018-11-03T08:27:45.145Z,15.7
2018-11-03T08:28:34.729Z,15.8
2018-11-03T08:29:25.819Z,15.8
2018-11-03T08:30:15.456Z,15.8
2018-11-03T08:31:05.111Z,15.8
2018-11-03T08:31:55.985Z,15.7
2018-11-03T08:32:45.221Z,15.8
2018-11-03T08:33:35.291Z,15.8
2018-11-03T08:34:25.369Z,16
2018-11-03T08:35:15.742Z,16.4
2018-11-03T08:36:05.582Z,16.4
2018-11-03T08:36:56.113Z,16.3
2018-11-03T08:37:45.641Z,16.5
2018-11-03T08:38:35.942Z,16.6
2018-11-03T08:39:25.933Z,16.8
2018-11-03T08:40:16.195Z,16.9
2018-11-03T08:41:06.685Z,16.8
2018-11-03T08:41:56.289Z,16.6
2018-11-03T08:42:46.547Z,16.8
2018-11-03T08:43:36.633Z,16.6
2018-11-03T08:44:26.403Z,16.6
2018-11-03T08:45:16.515Z,16.4
2018-11-03T08:46:06.918Z,16.7
2018-11-03T08:46:56.552Z,16.6
2018-11-03T08:47:46.909Z,16.7
2018-11-03T08:49:27.324Z,17.2
2018-11-03T08:50:17.159Z,17.3
2018-11-03T08:51:06.848Z,17.4
2018-11-03T08:51:57.481Z,17.5
2018-11-03T09:08:43.196Z,17.8
2018-11-03T09:09:33.005Z,17.7
2018-11-03T09:10:21.732Z,17.8
2018-11-03T09:11:12.808Z,17.4
2018-11-03T09:12:02.633Z,17.6
2018-11-03T09:12:53.122Z,17.8
2018-11-03T09:13:43.039Z,18.1
2018-11-03T09:14:33.736Z,18.5
2018-11-03T09:15:23.218Z,18.4
2018-11-03T09:16:12.267Z,18.6
2018-11-03T09:17:03.358Z,18.4
2018-11-03T09:17:52.852Z,18.5
2018-11-03T09:18:43.369Z,18.8
2018-11-03T09:19:33.299Z,19
2018-11-03T09:20:22.725Z,18.6
2018-11-03T09:21:13.587Z,18.4
2018-11-03T09:22:03.056Z,18.8
2018-11-03T09:22:53.404Z,18.9
2018-11-03T09:23:43.757Z,19.1
2018-11-03T09:24:34.116Z,19.5
2018-11-03T09:25:23.339Z,19.5
2018-11-03T09:26:12.781Z,19.4
2018-11-03T09:27:03.808Z,19.4
2018-11-03T09:27:53.206Z,19.8
2018-11-03T09:28:43.459Z,19.8
2018-11-03T09:29:34.228Z,19.8
2018-11-03T09:30:24.291Z,19.7
2018-11-03T09:31:14.098Z,20
2018-11-03T09:32:05.282Z,19.8
2018-11-03T09:32:53.858Z,19.6
2018-11-03T09:33:43.910Z,19.4
2018-11-03T09:34:34.654Z,19.4
2018-11-03T09:35:24.596Z,19.8
2018-11-03T09:36:14.690Z,19.8
2018-11-03T09:37:04.219Z,19.8
2018-11-03T09:37:54.126Z,19.8
2018-11-03T09:38:44.869Z,20.3
2018-11-03T09:39:34.736Z,20.4
2018-11-03T09:40:24.409Z,20.6
2018-11-03T09:41:14.778Z,20.9
2018-11-03T09:42:03.942Z,20.8
2018-11-03T09:42:54.988Z,20.8
2018-11-03T09:43:44.446Z,20.3
2018-11-03T09:44:35.260Z,20.6
2018-11-03T09:45:24.880Z,20.8
2018-11-03T09:46:14.848Z,20.6
2018-11-03T09:47:04.407Z,20.6
2018-11-03T09:47:55.281Z,20.8
2018-11-03T09:48:45.040Z,20.9
2018-11-03T09:49:34.891Z,20.6
2018-11-03T09:50:25.019Z,20.3
2018-11-03T09:51:16.320Z,20.5
2018-11-03T09:52:05.276Z,20.6
2018-11-03T09:52:55.153Z,20.5
2018-11-03T09:53:45.805Z,20.3
2018-11-03T09:54:35.245Z,20.4
2018-11-03T09:55:25.527Z,20.3
2018-11-03T09:56:15.587Z,20.5
2018-11-03T09:57:06.008Z,20.4
2018-11-03T09:57:56.302Z,20.2
2018-11-03T09:58:46.342Z,19.6
2018-11-03T09:59:35.535Z,19.7
2018-11-03T10:00:26.222Z,19.9
2018-11-03T10:01:16.238Z,19.8
2018-11-03T10:02:05.335Z,20.1
2018-11-03T10:02:56.070Z,20.2
2018-11-03T10:03:45.740Z,20.4
2018-11-03T10:04:36.189Z,20.8
2018-11-03T10:05:26.817Z,21.1
2018-11-03T10:06:16.349Z,20.8
2018-11-03T10:07:06.474Z,20.7
2018-11-03T10:07:56.232Z,20.1
2018-11-03T10:08:46.210Z,20
2018-11-03T10:09:36.709Z,20.1
2018-11-03T10:10:27.334Z,19.8
2018-11-03T10:11:17.269Z,19.3
2018-11-03T10:12:07.340Z,19.7
2018-11-03T10:12:57.141Z,19.4
2018-11-03T10:13:47.174Z,19.1
2018-11-03T10:14:37.019Z,19.6
2018-11-03T10:15:26.811Z,19.8
2018-11-03T10:16:17.607Z,20
2018-11-03T10:17:07.724Z,19.9
2018-11-03T10:17:57.262Z,20.2
2018-11-03T10:18:47.557Z,20.3
2018-11-03T10:19:37.693Z,20.2
2018-11-03T10:20:27.833Z,20.1
2018-11-03T10:21:17.318Z,20.1
2018-11-03T10:22:08.100Z,20.3
2018-11-03T10:22:58.065Z,20.6
2018-11-03T10:23:48.211Z,20.8
2018-11-03T10:24:37.363Z,20.6
2018-11-03T10:25:28.063Z,20.4
2018-11-03T10:26:17.803Z,20.6
2018-11-03T10:27:08.366Z,20.2
2018-11-03T10:27:57.921Z,19.6
2018-11-03T10:28:47.968Z,19.8
2018-11-03T10:29:38.341Z,19.9
2018-11-03T10:30:27.883Z,19.7
2018-11-03T10:31:17.868Z,19.9
2018-11-03T10:32:08.179Z,20.4
2018-11-03T10:32:58.092Z,20.4
2018-11-03T10:33:50.872Z,20.6
2018-11-03T10:34:38.999Z,20.7
2018-11-03T10:35:29.045Z,21
2018-11-03T10:36:19.133Z,20.6
2018-11-03T10:37:09.470Z,20.3
2018-11-03T10:37:58.813Z,20.3
2018-11-03T10:38:48.515Z,20.4
2018-11-03T10:39:39.091Z,21.2
2018-11-03T10:40:29.237Z,21.6
2018-11-03T10:41:19.150Z,21.4
2018-11-03T10:42:08.782Z,20.8
2018-11-03T10:42:59.137Z,20.6
2018-11-03T10:43:50.357Z,21.1
2018-11-03T10:44:39.166Z,21.3
2018-11-03T10:45:29.200Z,21.3
2018-11-03T10:46:19.628Z,21.3
2018-11-03T10:47:09.514Z,21.7
2018-11-03T10:47:59.702Z,21.9
2018-11-03T10:48:50.054Z,22.1
2018-11-03T10:49:39.233Z,22.1
2018-11-03T10:50:29.758Z,21.7
2018-11-03T10:51:19.392Z,21.9
2018-11-03T10:52:09.510Z,21.9
2018-11-03T10:53:00.609Z,22
2018-11-03T10:53:50.922Z,22.3
2018-11-03T10:54:39.869Z,22.1
2018-11-03T10:55:30.009Z,22.8
2018-11-03T10:56:19.734Z,23.2
2018-11-03T10:57:10.286Z,22.9
2018-11-03T10:58:00.965Z,22.9
2018-11-03T10:58:50.191Z,22.8
2018-11-03T10:59:40.553Z,22.9
2018-11-03T11:00:30.606Z,22.6
2018-11-03T11:01:20.673Z,22.1
2018-11-03T11:02:10.856Z,21.8
2018-11-03T11:03:00.226Z,21.8
2018-11-03T11:03:50.578Z,21.8
2018-11-03T11:04:40.613Z,21.7
2018-11-03T11:05:30.793Z,21.5
2018-11-03T11:06:20.483Z,21.7
2018-11-03T11:07:10.823Z,21.9
2018-11-03T11:08:00.934Z,21.9
2018-11-03T11:08:50.543Z,21.6
2018-11-03T11:09:40.891Z,21.4
2018-11-03T11:10:30.808Z,21.3
2018-11-03T11:11:21.219Z,21.4
2018-11-03T11:12:11.280Z,21.7
2018-11-03T11:13:01.265Z,21.6
2018-11-03T11:13:51.845Z,21.2
2018-11-03T11:14:41.086Z,21.3
2018-11-03T11:15:31.152Z,21.5
2018-11-03T11:16:22.142Z,21.4
2018-11-03T11:17:11.593Z,21.7
2018-11-03T11:18:02.208Z,21.4
2018-11-03T11:18:51.792Z,21.2
2018-11-03T11:19:42.074Z,21.5
2018-11-03T11:20:31.813Z,21.6
2018-11-03T11:21:22.255Z,21.3
2018-11-03T11:22:11.929Z,21.4
2018-11-03T11:23:02.017Z,21.2
2018-11-03T11:23:52.816Z,21.2
2018-11-03T11:25:33.327Z,21.2
2018-11-03T11:26:22.524Z,21.3
2018-11-03T11:27:12.122Z,21.4
2018-11-03T11:28:02.219Z,21.4
2018-11-03T11:28:53.077Z,21.7
2018-11-03T11:29:43.078Z,21.9
2018-11-03T11:30:33.127Z,21.8
2018-11-03T11:31:22.726Z,21.7
2018-11-03T11:32:12.584Z,21.8
2018-11-03T11:33:03.032Z,21.8
2018-11-03T11:33:53.628Z,22
2018-11-03T11:34:43.232Z,22
2018-11-03T11:35:33.202Z,22
2018-11-03T11:36:22.769Z,22.1
2018-11-03T11:37:12.837Z,22.3
2018-11-03T11:38:03.435Z,22.1
2018-11-03T11:38:53.190Z,22.4
2018-11-03T11:39:43.031Z,22.6
2018-11-03T11:40:33.103Z,22.3
2018-11-03T11:41:23.661Z,22.3
2018-11-03T11:42:14.015Z,22.1
2018-11-03T11:43:03.087Z,22.3
2018-11-03T11:43:53.417Z,22.1
2018-11-03T11:44:43.019Z,21.9
2018-11-03T11:45:33.360Z,21.9
2018-11-03T11:46:23.706Z,21.8
2018-11-03T11:47:13.800Z,22.1
2018-11-03T11:48:03.851Z,22.3
2018-11-03T11:48:53.614Z,22.5
2018-11-03T11:49:44.216Z,22.5
2018-11-03T11:50:34.322Z,22.5
2018-11-03T11:51:24.106Z,22.6
2018-11-03T11:52:14.186Z,22.6
2018-11-03T11:53:04.311Z,22.9
2018-11-03T11:53:54.303Z,22.7
2018-11-03T11:54:43.569Z,22.7
2018-11-03T11:55:33.911Z,22.8
2018-11-03T11:56:24.788Z,22.9
2018-11-03T11:57:14.623Z,22.9
2018-11-03T11:58:05.160Z,22.9
2018-11-03T11:58:54.366Z,23.3
2018-11-03T11:59:44.130Z,23.3
2018-11-03T12:00:35.942Z,23.4
2018-11-03T12:01:24.633Z,23.9
2018-11-03T12:02:14.933Z,23.8
2018-11-03T12:03:04.962Z,23.6
2018-11-03T12:03:55.595Z,23.6
2018-11-03T12:04:45.658Z,23.6
2018-11-03T12:05:35.157Z,23.4
2018-11-03T12:06:25.770Z,23.3
2018-11-03T12:07:15.862Z,23.5
2018-11-03T12:08:05.287Z,23.5
2018-11-03T12:08:55.193Z,23.4
2018-11-03T12:09:45.763Z,23.5
2018-11-03T12:10:35.897Z,23.6
2018-11-03T12:11:25.102Z,23.5
2018-11-03T12:12:15.649Z,23.8